Time,TemperatureF,DewpointF,PressureIn,WindDirection,WindDirectionDegrees,WindSpeedMPH,WindSpeedGustMPH,Humidity,HourlyPrecipIn,Conditions,Clouds,dailyrainin,SoftwareType,DateUTC
2013-05-23 00:01:00,78.0,53.0,29.74,WSW,248,5.0,13.0,42,0.00,,,0.04,,2013-05-22 21:01:00,
2013-05-23 00:11:00,77.0,52.0,29.71,South,188,6.0,14.0,42,0.00,,,0.04,,2013-05-22 21:11:00,
2013-05-23 00:21:00,77.0,52.0,29.71,South,188,6.0,14.0,42,0.00,,,0.04,,2013-05-22 21:21:00,
2013-05-23 00:32:00,77.0,52.0,29.71,South,188,6.0,14.0,42,0.00,,,0.04,,2013-05-22 21:32:00,
2013-05-23 00:42:00,77.0,52.0,29.71,South,188,6.0,14.0,42,0.00,,,0.04,,2013-05-22 21:42:00,
2013-05-23 00:52:00,78.0,52.0,29.71,South,183,8.0,16.0,40,0.00,,,0.04,,2013-05-22 21:52:00,
2013-05-23 01:02:00,78.0,52.0,29.71,South,183,8.0,16.0,40,0.00,,,0.04,,2013-05-22 22:02:00,
2013-05-23 01:12:00,78.0,49.0,29.65,SSE,159,6.0,15.0,36,0.00,,,0.04,,2013-05-22 22:12:00,
2013-05-23 01:22:00,78.0,49.0,29.65,SSE,159,6.0,15.0,36,0.00,,,0.04,,2013-05-22 22:22:00,
2013-05-23 01:33:00,78.0,49.0,29.65,SSE,159,6.0,15.0,36,0.00,,,0.04,,2013-05-22 22:33:00,
2013-05-23 01:42:00,78.0,47.0,29.62,SE,125,6.0,14.0,34,0.00,,,0.04,,2013-05-22 22:42:00,
2013-05-23 01:52:00,78.0,47.0,29.62,SE,125,6.0,14.0,34,0.00,,,0.04,,2013-05-22 22:52:00,
2013-05-23 02:00:00,78.0,47.0,29.62,SW,229,7.0,20.0,33,0.00,,,0.04,,2013-05-22 23:00:00,
2013-05-23 02:02:00,78.0,47.0,29.62,SE,125,6.0,14.0,34,0.00,,,0.04,,2013-05-22 23:02:00,
2013-05-23 02:12:00,78.0,47.0,29.62,SE,125,6.0,14.0,34,0.00,,,0.04,,2013-05-22 23:12:00,
2013-05-23 02:21:00,78.0,47.0,29.62,SW,229,7.0,20.0,33,0.00,,,0.04,,2013-05-22 23:21:00,
2013-05-23 02:32:00,78.0,47.0,29.62,SW,229,7.0,20.0,33,0.00,,,0.04,,2013-05-22 23:32:00,
2013-05-23 02:42:00,78.0,47.0,29.62,SW,229,7.0,20.0,33,0.00,,,0.04,,2013-05-22 23:42:00,
2013-05-23 02:52:00,78.0,47.0,29.62,SW,229,7.0,20.0,33,0.00,,,0.04,,2013-05-22 23:52:00,
2013-05-23 09:52:00,78.0,50.0,29.59,WSW,249,7.0,15.0,37,0.00,,,0.04,,2013-05-23 06:52:00,
2013-05-23 10:02:00,78.0,50.0,29.59,WSW,249,7.0,15.0,37,0.00,,,0.04,,2013-05-23 07:02:00,
2013-05-23 10:11:00,78.0,50.0,29.59,WSW,249,7.0,15.0,37,0.00,,,0.04,,2013-05-23 07:11:00,
2013-05-23 10:21:00,79.0,49.0,29.59,WSW,249,9.0,16.0,35,0.00,,,0.04,,2013-05-23 07:21:00,
2013-05-23 10:31:00,79.0,49.0,29.59,WSW,249,9.0,16.0,35,0.00,,,0.04,,2013-05-23 07:31:00,
2013-05-23 10:42:00,79.0,52.0,29.59,WSW,242,7.0,17.0,39,0.00,,,0.04,,2013-05-23 07:42:00,
2013-05-23 10:59:00,79.0,52.0,29.59,WSW,242,7.0,17.0,39,0.00,,,0.04,,2013-05-23 07:59:00,
2013-05-23 11:11:00,79.0,52.0,29.59,WSW,242,7.0,17.0,39,0.00,,,0.04,,2013-05-23 08:11:00,
2013-05-23 11:21:00,79.0,49.0,29.59,West,266,10.0,17.0,35,0.00,,,0.04,,2013-05-23 08:21:00,
2013-05-23 11:31:00,79.0,49.0,29.59,West,266,10.0,17.0,35,0.00,,,0.04,,2013-05-23 08:31:00,
2013-05-23 11:42:00,79.0,49.0,29.59,West,266,10.0,17.0,35,0.00,,,0.04,,2013-05-23 08:42:00,
2013-05-23 11:52:00,80.0,49.0,29.59,WSW,245,12.0,20.0,34,0.00,,,0.04,,2013-05-23 08:52:00,
2013-05-23 12:01:00,80.0,49.0,29.59,WSW,245,12.0,20.0,34,0.00,,,0.04,,2013-05-23 09:01:00,
2013-05-23 12:11:00,80.0,49.0,29.59,WSW,245,12.0,20.0,34,0.00,,,0.04,,2013-05-23 09:11:00,
2013-05-23 12:21:00,80.0,48.0,29.59,WSW,255,9.0,18.0,33,0.00,,,0.04,,2013-05-23 09:21:00,
2013-05-23 12:32:00,80.0,48.0,29.59,WSW,255,9.0,18.0,33,0.00,,,0.04,,2013-05-23 09:32:00,
2013-05-23 12:42:00,80.0,48.0,29.59,WSW,255,9.0,18.0,33,0.00,,,0.04,,2013-05-23 09:42:00,
2013-05-23 12:53:00,81.0,50.0,29.59,SW,227,8.0,17.0,34,0.00,,,0.04,,2013-05-23 09:53:00,
2013-05-23 13:02:00,81.0,50.0,29.59,SW,227,8.0,17.0,34,0.00,,,0.04,,2013-05-23 10:02:00,
2013-05-23 13:12:00,81.0,50.0,29.59,SW,227,8.0,17.0,34,0.00,,,0.04,,2013-05-23 10:12:00,
2013-05-23 13:22:00,82.0,51.0,29.59,West,260,6.0,14.0,34,0.00,,,0.04,,2013-05-23 10:22:00,
2013-05-23 13:32:00,82.0,51.0,29.59,West,260,6.0,14.0,34,0.00,,,0.04,,2013-05-23 10:32:00,
2013-05-23 13:42:00,82.0,51.0,29.59,West,260,6.0,14.0,34,0.00,,,0.04,,2013-05-23 10:42:00,
2013-05-23 13:52:00,82.0,52.0,29.59,SSW,198,7.0,17.0,36,0.00,,,0.04,,2013-05-23 10:52:00,
2013-05-23 14:02:00,82.0,52.0,29.59,SSW,198,7.0,17.0,36,0.00,,,0.04,,2013-05-23 11:02:00,
2013-05-23 14:11:00,82.0,52.0,29.59,SSW,198,7.0,17.0,36,0.00,,,0.04,,2013-05-23 11:11:00,
2013-05-23 14:21:00,82.0,52.0,29.59,WSW,239,8.0,13.0,36,0.00,,,0.04,,2013-05-23 11:21:00,
2013-05-23 14:32:00,82.0,52.0,29.59,WSW,239,8.0,13.0,36,0.00,,,0.04,,2013-05-23 11:32:00,
2013-05-23 14:42:00,82.0,52.0,29.59,WSW,239,8.0,13.0,36,0.00,,,0.04,,2013-05-23 11:42:00,
2013-05-23 14:52:00,83.0,53.0,29.59,WSW,250,9.0,16.0,36,0.00,,,0.04,,2013-05-23 11:52:00,
2013-05-23 15:01:00,83.0,53.0,29.59,WSW,250,9.0,16.0,36,0.00,,,0.04,,2013-05-23 12:01:00,
2013-05-23 15:11:00,83.0,53.0,29.59,WSW,250,9.0,16.0,36,0.00,,,0.04,,2013-05-23 12:11:00,
2013-05-23 15:21:00,83.0,53.0,29.59,SW,236,6.0,17.0,36,0.00,,,0.04,,2013-05-23 12:21:00,
2013-05-23 15:32:00,83.0,53.0,29.59,SW,236,6.0,17.0,36,0.00,,,0.04,,2013-05-23 12:32:00,
2013-05-23 15:42:00,83.0,53.0,29.59,SW,236,6.0,17.0,36,0.00,,,0.04,,2013-05-23 12:42:00,
2013-05-23 15:52:00,83.0,54.0,29.59,West,265,7.0,14.0,37,0.00,,,0.04,,2013-05-23 12:52:00,
2013-05-23 16:01:00,83.0,54.0,29.59,West,265,7.0,14.0,37,0.00,,,0.04,,2013-05-23 13:01:00,
2013-05-23 16:11:00,83.0,54.0,29.59,West,265,7.0,14.0,37,0.00,,,0.04,,2013-05-23 13:11:00,
2013-05-23 16:21:00,83.0,56.0,29.59,SW,221,6.0,15.0,40,0.00,,,0.04,,2013-05-23 13:21:00,
2013-05-23 16:31:00,83.0,56.0,29.59,SW,221,6.0,15.0,40,0.00,,,0.04,,2013-05-23 13:31:00,
2013-05-23 16:42:00,83.0,56.0,29.59,SW,221,6.0,15.0,40,0.00,,,0.04,,2013-05-23 13:42:00,
2013-05-23 16:52:00,84.0,56.0,29.59,WSW,253,7.0,16.0,39,0.00,,,0.04,,2013-05-23 13:52:00,
2013-05-23 17:01:00,84.0,56.0,29.59,WSW,253,7.0,16.0,39,0.00,,,0.04,,2013-05-23 14:01:00,
2013-05-23 17:11:00,84.0,56.0,29.59,WSW,253,7.0,16.0,39,0.00,,,0.04,,2013-05-23 14:11:00,
2013-05-23 17:21:00,84.0,57.0,29.59,WSW,248,7.0,15.0,40,0.00,,,0.04,,2013-05-23 14:21:00,
2013-05-23 17:31:00,84.0,57.0,29.59,WSW,248,7.0,15.0,40,0.00,,,0.04,,2013-05-23 14:31:00,
2013-05-23 17:42:00,84.0,57.0,29.59,WSW,248,7.0,15.0,40,0.00,,,0.04,,2013-05-23 14:42:00,
2013-05-23 17:52:00,83.0,58.0,29.59,SW,220,7.0,16.0,42,0.00,,,0.04,,2013-05-23 14:52:00,
2013-05-23 18:01:00,83.0,58.0,29.59,SW,220,7.0,16.0,42,0.00,,,0.04,,2013-05-23 15:01:00,
2013-05-23 18:11:00,83.0,58.0,29.59,SW,220,7.0,16.0,42,0.00,,,0.04,,2013-05-23 15:11:00,
2013-05-23 18:21:00,83.0,58.0,29.59,WSW,257,6.0,14.0,42,0.00,,,0.04,,2013-05-23 15:21:00,
2013-05-23 18:32:00,83.0,58.0,29.59,WSW,257,6.0,14.0,42,0.00,,,0.04,,2013-05-23 15:32:00,
2013-05-23 18:43:00,83.0,58.0,29.59,WSW,257,6.0,14.0,42,0.00,,,0.04,,2013-05-23 15:43:00,
2013-05-23 18:53:00,83.0,57.0,29.59,WSW,255,6.0,13.0,41,0.00,,,0.04,,2013-05-23 15:53:00,
2013-05-23 19:03:00,83.0,57.0,29.59,WSW,255,6.0,13.0,41,0.00,,,0.04,,2013-05-23 16:03:00,
2013-05-23 19:12:00,83.0,57.0,29.59,WSW,255,6.0,13.0,41,0.00,,,0.04,,2013-05-23 16:12:00,
2013-05-23 19:22:00,82.0,55.0,29.59,SW,228,7.0,13.0,40,0.00,,,0.04,,2013-05-23 16:22:00,
2013-05-23 19:33:00,82.0,55.0,29.59,SW,228,7.0,13.0,40,0.00,,,0.04,,2013-05-23 16:33:00,
2013-05-23 19:42:00,82.0,55.0,29.59,SW,228,7.0,13.0,40,0.00,,,0.04,,2013-05-23 16:42:00,
2013-05-23 19:52:00,81.0,56.0,29.59,WSW,248,6.0,13.0,42,0.00,,,0.04,,2013-05-23 16:52:00,
2013-05-23 20:02:00,81.0,56.0,29.59,WSW,248,6.0,13.0,42,0.00,,,0.04,,2013-05-23 17:02:00,
2013-05-23 20:11:00,81.0,56.0,29.59,WSW,248,6.0,13.0,42,0.00,,,0.04,,2013-05-23 17:11:00,
2013-05-23 20:22:00,79.0,54.0,29.62,SW,227,6.0,12.0,42,0.00,,,0.04,,2013-05-23 17:22:00,
2013-05-23 20:33:00,79.0,54.0,29.62,SW,227,6.0,12.0,42,0.00,,,0.04,,2013-05-23 17:33:00,
2013-05-23 20:43:00,79.0,54.0,29.62,SW,227,6.0,12.0,42,0.00,,,0.04,,2013-05-23 17:43:00,
2013-05-23 20:52:00,78.0,54.0,29.62,WSW,248,6.0,14.0,43,0.00,,,0.04,,2013-05-23 17:52:00,
2013-05-23 21:01:00,78.0,54.0,29.62,WSW,248,6.0,14.0,43,0.00,,,0.04,,2013-05-23 18:01:00,
2013-05-23 21:11:00,78.0,54.0,29.62,WSW,248,6.0,14.0,43,0.00,,,0.04,,2013-05-23 18:11:00,
2013-05-23 21:21:00,77.0,53.0,29.62,WSW,238,7.0,12.0,44,0.00,,,0.00,,2013-05-23 18:21:00,
2013-05-23 21:32:00,77.0,53.0,29.62,WSW,238,7.0,12.0,44,0.00,,,0.00,,2013-05-23 18:32:00,
2013-05-23 21:42:00,77.0,53.0,29.62,WSW,238,7.0,12.0,44,0.00,,,0.00,,2013-05-23 18:42:00,
2013-05-23 21:52:00,76.0,53.0,29.65,WSW,251,6.0,13.0,45,0.00,,,0.00,,2013-05-23 18:52:00,
2013-05-23 22:01:00,76.0,53.0,29.65,WSW,251,6.0,13.0,45,0.00,,,0.00,,2013-05-23 19:01:00,
2013-05-23 22:11:00,76.0,53.0,29.65,WSW,251,6.0,13.0,45,0.00,,,0.00,,2013-05-23 19:11:00,
2013-05-23 22:21:00,76.0,54.0,29.65,WSW,245,6.0,13.0,46,0.00,,,0.00,,2013-05-23 19:21:00,
2013-05-23 22:31:00,76.0,54.0,29.65,WSW,245,6.0,13.0,46,0.00,,,0.00,,2013-05-23 19:31:00,
2013-05-23 22:42:00,75.0,53.0,29.68,WSW,253,7.0,12.0,46,0.00,,,0.00,,2013-05-23 19:42:00,
2013-05-23 22:52:00,75.0,53.0,29.68,WSW,253,7.0,12.0,46,0.00,,,0.00,,2013-05-23 19:52:00,
2013-05-23 23:01:00,75.0,53.0,29.68,WSW,253,7.0,12.0,46,0.00,,,0.00,,2013-05-23 20:01:00,
2013-05-23 23:11:00,75.0,53.0,29.68,WSW,253,7.0,12.0,46,0.00,,,0.00,,2013-05-23 20:11:00,
2013-05-23 23:21:00,74.0,52.0,29.68,WSW,251,5.0,12.0,46,0.00,,,0.00,,2013-05-23 20:21:00,
2013-05-23 23:31:00,74.0,52.0,29.68,WSW,251,5.0,12.0,46,0.00,,,0.00,,2013-05-23 20:31:00,
2013-05-23 23:42:00,74.0,52.0,29.68,WSW,251,5.0,12.0,46,0.00,,,0.00,,2013-05-23 20:42:00,
2013-05-23 23:52:00,74.0,52.0,29.68,WSW,251,5.0,12.0,46,0.00,,,0.00,,2013-05-23 20:52:00,